Terminal Aerodrome Forecast
Issued by NWS

Home | Current Version | Previous Version | Text Only | Print | Product List | Glossary On
Versions: 1 2 3 4 5 6 7 8 9 10 11 12 13
000
FTUS45 KABQ 231700
TAFTCC
TAF
KTCC 231737Z 2318/2418 23020G28KT P6SM BKN090
     FM240200 21010KT P6SM SCT070
     FM240600 23007KT P6SM VCFG FEW015
     FM241500 21006KT P6SM SCT050=

USA.gov is the U.S. government's official web portal to all federal, state and local government web resources and services.